Phaethon — SVAM2 — position and weather

sailwx.info

Track history (hours):
 
Tides and Currents Weather Stations Pressure Air Temp Water Temp Dewpoint Dewpoint Depression Visibility Wind Speed Wind Dir Waves Ship Positions

Phaethon

Last reported at 2014-Dec-17 19:31 UTC. Time now 2014-Dec-17 19:57 UTC.
Position N 43°25' E 004°53'.

Length 274 m; draft 16.4 m.

Type: Tanker. MMSI: 240836000.

Date/timePositionNaut miles runAvg speedWind from/ knotsBaromVisibWave heightAir tempDewpointWater temp
2014-Dec-17 19:31N 43°25' E 004°53'0 0.0
2014-Dec-17 18:31N 43°25' E 004°53'0 0.0
2014-Dec-17 17:31N 43°25' E 004°53'0 0.0
2014-Dec-17 16:31N 43°25' E 004°53'0 0.0
2014-Dec-17 15:31N 43°25' E 004°53'0 0.0
2014-Dec-17 14:31N 43°25' E 004°53'0 0.0
2014-Dec-17 13:31N 43°25' E 004°53'0 0.0
2014-Dec-17 12:31N 43°25' E 004°53'0 0.0
2014-Dec-17 11:31N 43°25' E 004°53'0 0.0
2014-Dec-17 10:31N 43°25' E 004°53'0 0.0
2014-Dec-17 09:31N 43°25' E 004°53'0 0.0
2014-Dec-17 08:33N 43°25' E 004°53'0 0.0
2014-Dec-17 07:33N 43°25' E 004°53'0 0.0
2014-Dec-17 06:33N 43°25' E 004°53'0 0.0
2014-Dec-17 05:33N 43°25' E 004°53'0 0.0
2014-Dec-17 04:33N 43°25' E 004°53'0 0.0
2014-Dec-17 03:33N 43°25' E 004°53'0 0.0
2014-Dec-17 02:33N 43°25' E 004°53'0 0.0
2014-Dec-17 01:33N 43°25' E 004°53'0 0.0
2014-Dec-17 00:33N 43°25' E 004°53'5 5.2
2014-Dec-16 23:33N 43°22' E 004°59'2 1.5
2014-Dec-16 22:32N 43°20' E 005°00'0 0.0
2014-Dec-16 21:32N 43°20' E 005°00'0 0.0
2014-Dec-16 20:32N 43°20' E 005°00'0 0.0
2014-Dec-16 19:32N 43°20' E 005°00'0 0.0
2014-Dec-16 18:32N 43°20' E 005°00'0 0.0
2014-Dec-16 17:33N 43°20' E 005°00'1 1.3
2014-Dec-16 16:33N 43°19' E 004°59'8 7.7
2014-Dec-16 15:33N 43°12' E 005°03'1211.6
2014-Dec-16 14:30N 43°02' E 004°54'1111.5
2014-Dec-16 13:33N 42°53' E 004°45'1211.4
2014-Dec-16 12:31N 42°44' E 004°35'2211.1
2014-Dec-16 10:32N 42°26' E 004°18'1411.7
2014-Dec-16 09:21N 42°15' E 004°07'1111.6
2014-Dec-16 08:24N 42°06' E 003°58'1211.2
2014-Dec-16 07:18N 41°56' E 003°48'6310.2
2014-Dec-16 01:10N 41°06' E 002°57'1110.1
2014-Dec-16 00:07N 40°57' E 002°49'610.0
2014-Dec-15 23:33N 40°53' E 002°45'10 9.7
2014-Dec-15 22:33N 40°45' E 002°37'9 9.3
2014-Dec-15 21:33N 40°38' E 002°29'9 9.5
2014-Dec-15 20:33N 40°30' E 002°22'1010.1
2014-Dec-15 19:34N 40°22' E 002°14'10 9.9
2014-Dec-15 18:33N 40°15' E 002°05'4 4.0
2014-Dec-15 17:33N 40°11' E 002°03'9 9.5
2014-Dec-15 16:33N 40°03' E 001°56'1212.5
2014-Dec-15 15:33N 39°54' E 001°46'1312.6
2014-Dec-15 14:33N 39°44' E 001°36'1312.5
2014-Dec-15 13:33N 39°34' E 001°26'1212.3
2014-Dec-15 12:33N 39°24' E 001°17'1312.3
2014-Dec-15 11:31N 39°13' E 001°07'10711.9
2014-Dec-15 02:33N 37°48' W 000°16'1211.8
2014-Dec-15 01:33N 37°39' W 000°25'1211.7
2014-Dec-15 00:33N 37°30' W 000°35'1211.7
2014-Dec-14 23:33N 37°22' W 000°46'1211.6
2014-Dec-14 22:33N 37°14' W 000°56'1211.4
2014-Dec-14 21:32N 37°07' W 001°08'20511.9
2014-Dec-14 04:17N 36°00' W 005°09'1014.1
2014-Dec-14 03:33N 35°59' W 005°22'  
Track history (hours):
 
Tides and Currents Weather Stations Pressure Air Temp Water Temp Dewpoint Dewpoint Depression Visibility Wind Speed Wind Dir Waves Ship Positions

Phaethon

Last reported at 2014-Dec-17 19:31 UTC. Time now 2014-Dec-17 19:57 UTC.
Position N 43°25' E 004°53'.

Length 274 m; draft 16.4 m.

Type: Tanker. MMSI: 240836000.

Date/timePositionNaut miles runAvg speedWind from/ knotsBaromVisibWave heightAir tempDewpointWater temp
2014-Dec-17 19:31N 43°25' E 004°53'0 0.0
2014-Dec-17 18:31N 43°25' E 004°53'0 0.0
2014-Dec-17 17:31N 43°25' E 004°53'0 0.0
2014-Dec-17 16:31N 43°25' E 004°53'0 0.0
2014-Dec-17 15:31N 43°25' E 004°53'0 0.0
2014-Dec-17 14:31N 43°25' E 004°53'0 0.0
2014-Dec-17 13:31N 43°25' E 004°53'0 0.0
2014-Dec-17 12:31N 43°25' E 004°53'0 0.0
2014-Dec-17 11:31N 43°25' E 004°53'0 0.0
2014-Dec-17 10:31N 43°25' E 004°53'0 0.0
2014-Dec-17 09:31N 43°25' E 004°53'0 0.0
2014-Dec-17 08:33N 43°25' E 004°53'0 0.0
2014-Dec-17 07:33N 43°25' E 004°53'0 0.0
2014-Dec-17 06:33N 43°25' E 004°53'0 0.0
2014-Dec-17 05:33N 43°25' E 004°53'0 0.0
2014-Dec-17 04:33N 43°25' E 004°53'0 0.0
2014-Dec-17 03:33N 43°25' E 004°53'0 0.0
2014-Dec-17 02:33N 43°25' E 004°53'0 0.0
2014-Dec-17 01:33N 43°25' E 004°53'0 0.0
2014-Dec-17 00:33N 43°25' E 004°53'5 5.2
2014-Dec-16 23:33N 43°22' E 004°59'2 1.5
2014-Dec-16 22:32N 43°20' E 005°00'0 0.0
2014-Dec-16 21:32N 43°20' E 005°00'0 0.0
2014-Dec-16 20:32N 43°20' E 005°00'0 0.0
2014-Dec-16 19:32N 43°20' E 005°00'0 0.0
2014-Dec-16 18:32N 43°20' E 005°00'0 0.0
2014-Dec-16 17:33N 43°20' E 005°00'1 1.3
2014-Dec-16 16:33N 43°19' E 004°59'8 7.7
2014-Dec-16 15:33N 43°12' E 005°03'1211.6
2014-Dec-16 14:30N 43°02' E 004°54'1111.5
2014-Dec-16 13:33N 42°53' E 004°45'1211.4
2014-Dec-16 12:31N 42°44' E 004°35'2211.1
2014-Dec-16 10:32N 42°26' E 004°18'1411.7
2014-Dec-16 09:21N 42°15' E 004°07'1111.6
2014-Dec-16 08:24N 42°06' E 003°58'1211.2
2014-Dec-16 07:18N 41°56' E 003°48'6310.2
2014-Dec-16 01:10N 41°06' E 002°57'1110.1
2014-Dec-16 00:07N 40°57' E 002°49'610.0
2014-Dec-15 23:33N 40°53' E 002°45'10 9.7
2014-Dec-15 22:33N 40°45' E 002°37'9 9.3
2014-Dec-15 21:33N 40°38' E 002°29'9 9.5
2014-Dec-15 20:33N 40°30' E 002°22'1010.1
2014-Dec-15 19:34N 40°22' E 002°14'10 9.9
2014-Dec-15 18:33N 40°15' E 002°05'4 4.0
2014-Dec-15 17:33N 40°11' E 002°03'9 9.5
2014-Dec-15 16:33N 40°03' E 001°56'1212.5
2014-Dec-15 15:33N 39°54' E 001°46'1312.6
2014-Dec-15 14:33N 39°44' E 001°36'1312.5
2014-Dec-15 13:33N 39°34' E 001°26'1212.3
2014-Dec-15 12:33N 39°24' E 001°17'1312.3
2014-Dec-15 11:31N 39°13' E 001°07'10711.9
2014-Dec-15 02:33N 37°48' W 000°16'1211.8
2014-Dec-15 01:33N 37°39' W 000°25'1211.7
2014-Dec-15 00:33N 37°30' W 000°35'1211.7
2014-Dec-14 23:33N 37°22' W 000°46'1211.6
2014-Dec-14 22:33N 37°14' W 000°56'1211.4
2014-Dec-14 21:32N 37°07' W 001°08'20511.9
2014-Dec-14 04:17N 36°00' W 005°09'1014.1
2014-Dec-14 03:33N 35°59' W 005°22'  

Dump ship's entire track history